createdAt,value
2022-11-28T00:01:25.235Z,144382.09
2022-11-28T00:03:52.388Z,144428.09
2022-11-28T00:06:19.866Z,144409.94
2022-11-28T00:08:47.544Z,144408.72
2022-11-28T00:11:15.938Z,144367.59
2022-11-28T00:13:43.534Z,144386.94
2022-11-28T00:16:16.188Z,144406.34
2022-11-28T00:18:43.728Z,144389.38
2022-11-28T00:21:13.189Z,144382.09
2022-11-28T00:23:41.166Z,144285.31
2022-11-28T00:26:14.185Z,144362.75
2022-11-28T00:28:41.331Z,144353.06
2022-11-28T00:31:13.812Z,144338.56
2022-11-28T00:33:41.423Z,144333.72
2022-11-28T00:36:08.915Z,144317.97
2022-11-28T00:38:35.948Z,144326.44
2022-11-28T00:41:18.067Z,144291.34
2022-11-28T00:43:47.064Z,144317.97
2022-11-28T00:46:15.492Z,144316.78
2022-11-28T00:48:42.631Z,144249.00
2022-11-28T00:51:14.315Z,144316.78
2022-11-28T00:53:42.690Z,144314.34
2022-11-28T00:56:11.960Z,144227.22
2022-11-28T00:58:39.967Z,144256.28
2022-11-28T01:01:37.981Z,144302.25
2022-11-28T01:04:08.323Z,144288.94
2022-11-28T01:06:44.465Z,144294.97
2022-11-28T01:09:17.565Z,144287.75
2022-11-28T01:11:46.189Z,144286.50
2022-11-28T01:14:13.698Z,144302.25
2022-11-28T01:16:40.807Z,144304.66
2022-11-28T01:19:08.062Z,144195.78
2022-11-28T01:21:36.056Z,144272.00
2022-11-28T01:24:03.262Z,144315.56
2022-11-28T01:26:30.673Z,144319.16
2022-11-28T01:28:59.725Z,144273.19
2022-11-28T01:31:28.905Z,144303.47
2022-11-28T01:33:56.882Z,144267.16
2022-11-28T01:36:24.456Z,144307.09
2022-11-28T01:38:52.426Z,144303.47
2022-11-28T01:41:24.807Z,144328.88
2022-11-28T01:44:08.681Z,144320.41
2022-11-28T01:46:36.873Z,144311.94
2022-11-28T01:49:22.264Z,144338.56
2022-11-28T01:51:56.104Z,144355.47
2022-11-28T01:54:25.411Z,144357.91
2022-11-28T01:56:58.202Z,144379.69
2022-11-28T01:59:28.232Z,144377.25
2022-11-28T02:01:55.436Z,144337.31
2022-11-28T02:04:25.901Z,144355.47
2022-11-28T02:06:52.951Z,144374.88
2022-11-28T02:09:20.159Z,144292.59
2022-11-28T02:12:08.011Z,144386.94
2022-11-28T02:14:46.207Z,144379.69
2022-11-28T02:17:15.934Z,144384.53
2022-11-28T02:20:01.344Z,144379.69
2022-11-28T02:22:40.974Z,144370.03
2022-11-28T02:25:52.699Z,144382.09
2022-11-28T02:28:30.033Z,144285.31
2022-11-28T02:31:33.358Z,144389.38
2022-11-28T02:34:08.327Z,144376.06
2022-11-28T02:36:50.144Z,144401.50
2022-11-28T02:39:25.302Z,144353.06
2022-11-28T02:42:15.072Z,144386.94
2022-11-28T02:45:27.465Z,144370.03
2022-11-28T02:48:03.595Z,144399.06
2022-11-28T02:50:38.428Z,144388.19
2022-11-28T02:53:20.001Z,144393.03
2022-11-28T02:55:47.619Z,144384.53
2022-11-28T02:58:14.696Z,144319.16
2022-11-28T03:00:46.897Z,144332.47
2022-11-28T03:03:27.120Z,144314.34
2022-11-28T03:06:24.339Z,144399.06
2022-11-28T03:09:19.619Z,144393.03
2022-11-28T03:11:58.356Z,144333.72
2022-11-28T03:14:36.705Z,144386.94
2022-11-28T03:17:03.627Z,144386.94
2022-11-28T03:19:39.093Z,144379.69
2022-11-28T03:22:24.899Z,144379.69
2022-11-28T03:25:06.105Z,144343.41
2022-11-28T03:27:38.788Z,144340.97
2022-11-28T03:30:12.155Z,144331.28
2022-11-28T03:32:40.285Z,144328.88
2022-11-28T03:35:14.063Z,144268.34
2022-11-28T03:37:47.747Z,144311.94
2022-11-28T03:40:26.900Z,144315.56
2022-11-28T03:43:01.422Z,144280.47
2022-11-28T03:45:32.506Z,144220.00
2022-11-28T03:48:05.537Z,144304.66
2022-11-28T03:50:47.538Z,144307.09
2022-11-28T03:53:26.007Z,144316.78
2022-11-28T03:56:04.265Z,144297.44
2022-11-28T03:58:36.453Z,144302.25
2022-11-28T04:01:27.245Z,144307.09
2022-11-28T04:04:03.200Z,144328.88
2022-11-28T04:06:37.722Z,144310.75
2022-11-28T04:09:14.533Z,144310.75
2022-11-28T04:11:51.648Z,144299.81
2022-11-28T04:14:29.441Z,144304.66
2022-11-28T04:17:17.361Z,144302.25
2022-11-28T04:19:51.689Z,144309.50
2022-11-28T04:22:30.841Z,144307.09
2022-11-28T04:25:02.441Z,144293.78
2022-11-28T04:27:35.417Z,144292.59
2022-11-28T04:30:04.736Z,144304.66
2022-11-28T04:32:36.162Z,144303.47
2022-11-28T04:35:26.132Z,144292.59
2022-11-28T04:37:55.815Z,144290.16
2022-11-28T04:40:24.741Z,144241.72
2022-11-28T04:42:56.492Z,144261.13
2022-11-28T04:45:30.462Z,144278.03
2022-11-28T04:47:58.029Z,144280.47
2022-11-28T04:50:31.211Z,144268.34
2022-11-28T04:53:10.117Z,144272.00
2022-11-28T04:56:01.547Z,144267.16
2022-11-28T04:58:35.446Z,144275.63
2022-11-28T05:01:05.756Z,144280.47
2022-11-28T05:03:32.881Z,144294.97
2022-11-28T05:06:01.453Z,144246.56
2022-11-28T05:08:28.748Z,144297.44
2022-11-28T05:10:55.878Z,144290.16
2022-11-28T05:13:22.920Z,144298.63
2022-11-28T05:15:49.929Z,144299.81
2022-11-28T05:18:16.932Z,144302.25
2022-11-28T05:20:44.613Z,144278.03
2022-11-28T05:23:11.642Z,144313.13
2022-11-28T05:25:39.968Z,144227.22
2022-11-28T05:28:07.990Z,144324.06
2022-11-28T05:30:35.063Z,144328.88
2022-11-28T05:33:02.698Z,144314.34
2022-11-28T05:35:29.754Z,144333.72
2022-11-28T05:37:56.827Z,144338.56
2022-11-28T05:40:23.876Z,144345.78
2022-11-28T05:42:50.869Z,144348.25
2022-11-28T05:45:17.881Z,144324.06
2022-11-28T05:47:44.858Z,144330.09
2022-11-28T05:50:11.932Z,144328.88
2022-11-28T05:52:38.937Z,144324.06
2022-11-28T05:55:06.541Z,144326.44
2022-11-28T05:57:33.598Z,144302.25
2022-11-28T06:00:00.634Z,144320.41
2022-11-28T06:02:27.716Z,144328.88
2022-11-28T06:04:54.790Z,144321.59
2022-11-28T06:07:21.934Z,144308.28
2022-11-28T06:09:48.935Z,144333.72
2022-11-28T06:12:15.929Z,144320.41
2022-11-28T06:14:42.892Z,144316.78
2022-11-28T06:17:09.958Z,144326.44
2022-11-28T06:19:37.173Z,144327.66
2022-11-28T06:22:04.214Z,144336.13
2022-11-28T06:24:31.176Z,144340.97
2022-11-28T06:26:58.173Z,144348.25
2022-11-28T06:29:25.179Z,144345.78
2022-11-28T06:31:52.235Z,144327.66
2022-11-28T06:34:19.252Z,144336.13
2022-11-28T06:36:46.272Z,144316.78
2022-11-28T06:39:15.444Z,144328.88
2022-11-28T06:41:43.580Z,144314.34
2022-11-28T06:44:15.008Z,144314.34
2022-11-28T06:46:42.818Z,144302.25
2022-11-28T06:49:13.114Z,144308.28
2022-11-28T06:51:41.643Z,144292.59
2022-11-28T06:54:09.147Z,144279.28
2022-11-28T06:56:36.165Z,144273.19
2022-11-28T06:59:03.251Z,144258.69
2022-11-28T07:01:32.237Z,144249.00
2022-11-28T07:03:59.316Z,144280.47
2022-11-28T07:06:27.146Z,144223.59
2022-11-28T07:08:57.531Z,144149.81
2022-11-28T07:11:30.540Z,144281.66
2022-11-28T07:13:58.689Z,144270.81
2022-11-28T07:16:27.898Z,144284.13
2022-11-28T07:18:56.471Z,144257.50
2022-11-28T07:21:24.012Z,144232.06
2022-11-28T07:23:51.507Z,144275.63
2022-11-28T07:26:22.926Z,144159.50
2022-11-28T07:28:51.155Z,144242.97
2022-11-28T07:31:20.937Z,144256.28
2022-11-28T07:33:50.429Z,144258.69
2022-11-28T07:36:20.968Z,144253.84
2022-11-28T07:38:49.910Z,144251.47
2022-11-28T07:41:17.589Z,144267.16
2022-11-28T07:43:46.442Z,144270.81
2022-11-28T07:46:17.305Z,144275.63
2022-11-28T07:48:45.013Z,144250.22
2022-11-28T07:51:15.015Z,144178.88
2022-11-28T07:53:42.911Z,144210.28
2022-11-28T07:56:14.924Z,144193.38
2022-11-28T07:58:43.574Z,144258.69
2022-11-28T08:01:21.556Z,144265.97
2022-11-28T08:03:48.896Z,144163.13
2022-11-28T08:06:17.468Z,144285.31
2022-11-28T08:08:46.950Z,144284.13
2022-11-28T08:11:15.611Z,144282.88
2022-11-28T08:13:43.030Z,144207.88
2022-11-28T08:16:14.359Z,144302.25
2022-11-28T08:18:41.536Z,144303.47
2022-11-28T08:21:10.474Z,144328.88
2022-11-28T08:23:38.518Z,144330.09
2022-11-28T08:26:08.438Z,144285.31
2022-11-28T08:28:35.892Z,144348.25
2022-11-28T08:31:10.786Z,144340.97
2022-11-28T08:33:38.186Z,144337.31
2022-11-28T08:36:06.590Z,144343.41
2022-11-28T08:38:33.661Z,144350.63
2022-11-28T08:41:02.255Z,144353.06
2022-11-28T08:43:29.415Z,144367.59
2022-11-28T08:45:56.846Z,144365.19
2022-11-28T08:48:24.033Z,144379.69
2022-11-28T08:50:51.464Z,144382.09
2022-11-28T08:53:18.814Z,144316.78
2022-11-28T08:55:45.834Z,144414.81
2022-11-28T08:58:13.343Z,144418.41
2022-11-28T09:00:42.237Z,144422.06
2022-11-28T09:03:14.703Z,144425.69
2022-11-28T09:05:45.257Z,144440.22
2022-11-28T09:08:13.721Z,144459.56
2022-11-28T09:10:43.727Z,144457.16
2022-11-28T09:13:12.979Z,144495.88
2022-11-28T09:15:45.033Z,144495.88
2022-11-28T09:18:13.909Z,144486.22
2022-11-28T09:20:41.997Z,144471.69
2022-11-28T09:23:09.805Z,144481.38
2022-11-28T09:25:39.813Z,144515.28
2022-11-28T09:28:07.184Z,144509.22
2022-11-28T09:30:34.510Z,144518.88
2022-11-28T09:33:01.673Z,144524.97
2022-11-28T09:35:28.837Z,144537.06
2022-11-28T09:37:57.441Z,144520.13
2022-11-28T09:40:40.345Z,144512.84
2022-11-28T09:43:35.721Z,144534.66
2022-11-28T09:46:08.215Z,144447.50
2022-11-28T09:48:38.163Z,144551.63
2022-11-28T09:51:14.473Z,144558.84
2022-11-28T09:54:00.316Z,144537.06
2022-11-28T09:56:27.505Z,144540.69
2022-11-28T09:59:04.322Z,144584.31
2022-11-28T10:01:44.267Z,144606.13
2022-11-28T10:04:31.622Z,144627.88
2022-11-28T10:07:01.572Z,144617.00
2022-11-28T10:09:33.860Z,144659.38
2022-11-28T10:12:15.881Z,144682.44
2022-11-28T10:15:08.674Z,144656.97
2022-11-28T10:17:57.307Z,144693.38
2022-11-28T10:20:28.582Z,144603.66
2022-11-28T10:22:59.061Z,144643.66
2022-11-28T10:25:37.546Z,144675.19
2022-11-28T10:28:15.269Z,144653.34
2022-11-28T10:30:48.387Z,144692.16
2022-11-28T10:33:29.542Z,144592.78
2022-11-28T10:36:01.883Z,144706.69
2022-11-28T10:38:32.180Z,144556.47
2022-11-28T10:41:20.549Z,144692.16
2022-11-28T10:43:59.366Z,144675.19
2022-11-28T10:46:53.412Z,144649.69
2022-11-28T10:49:46.578Z,144646.06
2022-11-28T10:52:16.665Z,144638.81
2022-11-28T10:54:52.430Z,144638.81
2022-11-28T10:58:01.150Z,144629.13
2022-11-28T11:00:28.213Z,144609.72
2022-11-28T11:02:57.084Z,144609.72
2022-11-28T11:05:25.760Z,144591.53
2022-11-28T11:07:56.449Z,144597.63
2022-11-28T11:10:37.246Z,144580.66
2022-11-28T11:13:25.876Z,144608.50
2022-11-28T11:16:03.817Z,144532.22
2022-11-28T11:18:34.592Z,144597.63
2022-11-28T11:21:24.480Z,144574.63
2022-11-28T11:24:18.148Z,144592.78
2022-11-28T11:26:48.664Z,144580.66
2022-11-28T11:29:27.866Z,144560.06
2022-11-28T11:31:55.611Z,144485.00
2022-11-28T11:34:23.739Z,144544.34
2022-11-28T11:36:51.587Z,144554.00
2022-11-28T11:39:18.830Z,144541.88
2022-11-28T11:41:49.317Z,144544.34
2022-11-28T11:44:20.486Z,144537.06
2022-11-28T11:46:52.309Z,144543.13
2022-11-28T11:49:29.787Z,144520.13
2022-11-28T11:51:59.199Z,144503.16
2022-11-28T11:54:26.430Z,144486.22
2022-11-28T11:57:11.234Z,144459.56
2022-11-28T12:00:14.637Z,144558.84
2022-11-28T12:02:46.557Z,144568.53
2022-11-28T12:06:14.127Z,144568.53
2022-11-28T12:09:26.969Z,144580.66
2022-11-28T12:12:01.517Z,144558.84
2022-11-28T12:14:32.773Z,144580.66
2022-11-28T12:17:57.221Z,144602.47
2022-11-28T12:20:23.315Z,144618.19
2022-11-28T12:23:07.019Z,144581.88
2022-11-28T12:25:43.512Z,144626.69
2022-11-28T12:28:41.863Z,144624.28
2022-11-28T12:31:16.779Z,144613.34
2022-11-28T12:33:55.751Z,144626.69
2022-11-28T12:36:49.424Z,144632.72
2022-11-28T12:39:23.288Z,144539.50
2022-11-28T12:42:12.404Z,144621.84
2022-11-28T12:45:08.619Z,144641.22
2022-11-28T12:47:50.553Z,144648.50
2022-11-28T12:50:36.804Z,144638.81
2022-11-28T12:53:03.745Z,144636.38
2022-11-28T12:55:46.721Z,144640.00
2022-11-28T12:58:23.994Z,144590.34
2022-11-28T13:01:32.962Z,144621.84
2022-11-28T13:04:25.289Z,144575.81
2022-11-28T13:07:17.073Z,144632.72
2022-11-28T13:10:03.604Z,144641.22
2022-11-28T13:13:13.349Z,144629.13
2022-11-28T13:16:04.842Z,144618.19
2022-11-28T13:18:52.539Z,144578.22
2022-11-28T13:21:32.261Z,144539.50
2022-11-28T13:24:11.490Z,144638.81
2022-11-28T13:27:07.983Z,144631.53
2022-11-28T13:29:43.615Z,144643.66
2022-11-28T13:32:28.691Z,144650.91
2022-11-28T13:34:56.246Z,144619.44
2022-11-28T13:40:42.133Z,144647.28
2022-11-28T13:43:34.282Z,144667.88
2022-11-28T13:46:01.870Z,144687.28
2022-11-28T13:49:13.684Z,144671.56
2022-11-28T13:51:31.966Z,144642.44
2022-11-28T13:54:31.935Z,144654.53
2022-11-28T13:57:29.023Z,144636.38
2022-11-28T14:00:01.655Z,144649.69
2022-11-28T14:02:39.392Z,144636.38
2022-11-28T14:05:26.356Z,144621.84
2022-11-28T14:07:56.029Z,144621.84
2022-11-28T14:10:45.935Z,144638.81
2022-11-28T14:13:23.162Z,144641.22
2022-11-28T14:16:26.111Z,144655.78
2022-11-28T14:18:57.792Z,144672.75
2022-11-28T14:21:49.646Z,144604.88
2022-11-28T14:24:41.315Z,144667.88
2022-11-28T14:27:26.064Z,144676.41
2022-11-28T14:29:55.523Z,144684.88
2022-11-28T14:32:38.941Z,144680.03
2022-11-28T14:35:17.273Z,144661.81
2022-11-28T14:37:53.892Z,144672.75
2022-11-28T14:41:11.553Z,144689.72
2022-11-28T14:43:46.130Z,144680.03
2022-11-28T14:46:16.189Z,144680.03
2022-11-28T14:48:58.664Z,144689.72
2022-11-28T14:51:44.280Z,144695.75
2022-11-28T14:54:35.426Z,144626.69
2022-11-28T14:57:16.447Z,144699.41
2022-11-28T14:59:44.005Z,144646.06
2022-11-28T15:02:11.374Z,144703.06
2022-11-28T15:04:58.957Z,144706.69
2022-11-28T15:07:53.887Z,144698.22
2022-11-28T15:10:49.030Z,144684.88
2022-11-28T15:13:19.037Z,144682.44
2022-11-28T15:15:48.737Z,144672.75
2022-11-28T15:18:18.821Z,144688.53
2022-11-28T15:20:53.736Z,144603.66
2022-11-28T15:23:33.057Z,144682.44
2022-11-28T15:26:02.047Z,144687.28
2022-11-28T15:28:32.384Z,144658.19
2022-11-28T15:31:02.097Z,144665.47
2022-11-28T15:33:30.236Z,144686.09
2022-11-28T15:36:10.640Z,144687.28
2022-11-28T15:38:41.138Z,144677.59
2022-11-28T15:41:09.380Z,144675.19
2022-11-28T15:43:41.771Z,144592.78
2022-11-28T15:46:19.277Z,144664.22
2022-11-28T15:48:52.281Z,144665.47
2022-11-28T15:51:27.810Z,144660.63
2022-11-28T15:53:55.380Z,144663.03
2022-11-28T15:56:23.644Z,144672.75
2022-11-28T15:58:52.964Z,144670.34
2022-11-28T16:01:25.596Z,144660.63
2022-11-28T16:03:55.771Z,144663.03
2022-11-28T16:06:26.113Z,144635.16
2022-11-28T16:08:56.984Z,144643.66
2022-11-28T16:11:26.918Z,144643.66
2022-11-28T16:13:57.334Z,144661.81
2022-11-28T16:16:32.942Z,144649.69
2022-11-28T16:19:02.391Z,144660.63
2022-11-28T16:21:35.929Z,144643.66
2022-11-28T16:24:16.134Z,144655.78
2022-11-28T16:26:54.235Z,144650.91
2022-11-28T16:29:24.373Z,144660.63
2022-11-28T16:31:51.677Z,144543.13
2022-11-28T16:34:46.706Z,144650.91
2022-11-28T16:37:14.291Z,144632.72
2022-11-28T16:39:42.038Z,144631.53
2022-11-28T16:42:17.451Z,144650.91
2022-11-28T16:44:44.714Z,144660.63
2022-11-28T16:47:30.265Z,144663.03
2022-11-28T16:50:15.392Z,144652.13
2022-11-28T16:52:53.552Z,144672.75
2022-11-28T16:55:29.617Z,144663.03
2022-11-28T16:58:08.452Z,144670.34
2022-11-28T17:00:36.135Z,144670.34
2022-11-28T17:03:06.441Z,144655.78
2022-11-28T17:05:36.092Z,144672.75
2022-11-28T17:08:03.278Z,144672.75
2022-11-28T17:10:30.300Z,144659.38
2022-11-28T17:12:57.493Z,144670.34
2022-11-28T17:15:24.592Z,144663.03
2022-11-28T17:17:52.271Z,144660.63
2022-11-28T17:20:19.588Z,144665.47
2022-11-28T17:22:47.819Z,144672.75
2022-11-28T17:25:17.844Z,144670.34
2022-11-28T17:27:45.398Z,144672.75
2022-11-28T17:30:16.467Z,144624.28
2022-11-28T17:32:43.639Z,144535.84
2022-11-28T17:35:19.988Z,144660.63
2022-11-28T17:37:47.010Z,144664.22
2022-11-28T17:40:32.810Z,144649.69
2022-11-28T17:43:01.113Z,144650.91
2022-11-28T17:45:31.074Z,144650.91
2022-11-28T17:47:58.874Z,144625.47
2022-11-28T17:50:26.568Z,144665.47
2022-11-28T17:52:53.777Z,144658.19
2022-11-28T17:55:20.900Z,144677.59
2022-11-28T17:57:48.178Z,144663.03
2022-11-28T18:00:16.786Z,144671.56
2022-11-28T18:02:44.907Z,144680.03
2022-11-28T18:05:13.109Z,144665.47
2022-11-28T18:07:40.775Z,144670.34
2022-11-28T18:10:11.578Z,144677.59
2022-11-28T18:12:39.385Z,144671.56
2022-11-28T18:15:10.104Z,144670.34
2022-11-28T18:17:37.994Z,144680.03
2022-11-28T18:20:05.817Z,144686.09
2022-11-28T18:22:32.810Z,144587.94
2022-11-28T18:25:00.512Z,144694.56
2022-11-28T18:27:28.074Z,144663.03
2022-11-28T18:29:55.076Z,144680.03
2022-11-28T18:32:23.187Z,144663.03
2022-11-28T18:34:50.442Z,144682.44
2022-11-28T18:37:17.519Z,144682.44
2022-11-28T18:39:44.759Z,144675.19
2022-11-28T18:42:11.869Z,144670.34
2022-11-28T18:44:38.932Z,144682.44
2022-11-28T18:47:05.949Z,144632.72
2022-11-28T18:49:32.934Z,144704.25
2022-11-28T18:51:59.909Z,144680.03
2022-11-28T18:54:30.960Z,144672.75
2022-11-28T18:56:57.952Z,144706.69
2022-11-28T18:59:25.410Z,144618.19
2022-11-28T19:01:52.762Z,144713.94
2022-11-28T19:04:19.815Z,144711.53
2022-11-28T19:06:48.551Z,144699.41
2022-11-28T19:09:16.897Z,144720.03
2022-11-28T19:11:45.156Z,144636.38
2022-11-28T19:14:17.709Z,144723.63
2022-11-28T19:16:53.504Z,144736.97
2022-11-28T19:19:20.672Z,144732.13
2022-11-28T19:21:49.749Z,144734.56
2022-11-28T19:24:21.173Z,144741.81
2022-11-28T19:26:50.024Z,144721.22
2022-11-28T19:29:17.636Z,144736.97
2022-11-28T19:31:45.046Z,144734.56
2022-11-28T19:34:15.224Z,144735.75
2022-11-28T19:36:47.684Z,144723.63
2022-11-28T19:39:23.952Z,144741.81
2022-11-28T19:41:54.676Z,144728.50
2022-11-28T19:44:24.537Z,144726.06
2022-11-28T19:46:53.012Z,144728.50
2022-11-28T19:49:23.135Z,144730.91
2022-11-28T19:51:50.956Z,144735.75
2022-11-28T19:54:21.509Z,144728.50
2022-11-28T19:56:49.058Z,144729.72
2022-11-28T19:59:16.872Z,144697.00
2022-11-28T20:01:44.222Z,144727.28
2022-11-28T20:04:11.579Z,144728.50
2022-11-28T20:06:38.752Z,144736.97
2022-11-28T20:09:11.981Z,144688.53
2022-11-28T20:11:42.880Z,144744.25
2022-11-28T20:14:16.452Z,144747.88
2022-11-28T20:16:44.327Z,144665.47
2022-11-28T20:19:14.159Z,144738.19
2022-11-28T20:21:41.933Z,144730.91
2022-11-28T20:24:10.344Z,144750.28
2022-11-28T20:26:40.469Z,144755.13
2022-11-28T20:29:11.784Z,144755.13
2022-11-28T20:31:46.206Z,144680.03
2022-11-28T20:34:17.105Z,144755.13
2022-11-28T20:36:44.890Z,144755.13
2022-11-28T20:39:12.808Z,144706.69
2022-11-28T20:41:39.791Z,144757.56
2022-11-28T20:44:10.242Z,144755.13
2022-11-28T20:46:38.135Z,144759.97
2022-11-28T20:49:06.900Z,144755.13
2022-11-28T20:51:35.162Z,144751.53
2022-11-28T20:54:04.687Z,144741.81
2022-11-28T20:56:51.664Z,144764.88
2022-11-28T20:59:21.933Z,144769.72
2022-11-28T21:01:48.973Z,144747.88
2022-11-28T21:04:17.565Z,144763.63
2022-11-28T21:06:47.125Z,144759.97
2022-11-28T21:09:14.762Z,144768.47
2022-11-28T21:11:56.969Z,144780.59
2022-11-28T21:14:25.792Z,144778.16
2022-11-28T21:16:52.954Z,144769.72
2022-11-28T21:19:20.099Z,144792.72
2022-11-28T21:21:47.051Z,144699.41
2022-11-28T21:24:14.369Z,144787.88
2022-11-28T21:26:46.395Z,144784.25
2022-11-28T21:29:21.262Z,144787.88
2022-11-28T21:31:48.456Z,144734.56
2022-11-28T21:34:16.683Z,144789.09
2022-11-28T21:36:44.779Z,144784.25
2022-11-28T21:39:14.794Z,144733.34
2022-11-28T21:41:42.090Z,144785.44
2022-11-28T21:44:09.600Z,144786.63
2022-11-28T21:46:36.651Z,144784.25
2022-11-28T21:49:03.699Z,144781.78
2022-11-28T21:51:30.705Z,144793.94
2022-11-28T21:53:58.065Z,144747.88
2022-11-28T21:56:25.670Z,144803.63
2022-11-28T21:58:54.107Z,144741.81
2022-11-28T22:01:21.510Z,144806.06
2022-11-28T22:03:49.367Z,144807.25
2022-11-28T22:06:23.037Z,144803.63
2022-11-28T22:08:51.408Z,144795.13
2022-11-28T22:11:21.928Z,144802.41
2022-11-28T22:13:50.007Z,144806.06
2022-11-28T22:16:18.666Z,144803.63
2022-11-28T22:18:47.289Z,144806.06
2022-11-28T22:21:50.533Z,144802.41
2022-11-28T22:24:08.216Z,144804.81
2022-11-28T22:26:35.958Z,144804.81
2022-11-28T22:29:04.646Z,144799.97
2022-11-28T22:31:32.840Z,144713.94
2022-11-28T22:34:00.168Z,144815.75
2022-11-28T22:36:27.538Z,144793.94
2022-11-28T22:38:56.896Z,144823.00
2022-11-28T22:41:29.409Z,144796.31
2022-11-28T22:44:00.488Z,144806.06
2022-11-28T22:46:28.720Z,144807.25
2022-11-28T22:48:56.145Z,144810.91
2022-11-28T22:51:25.477Z,144739.41
2022-11-28T22:53:58.988Z,144806.06
2022-11-28T22:56:28.690Z,144798.78
2022-11-28T22:58:55.971Z,144804.81
2022-11-28T23:01:27.174Z,144798.78
2022-11-28T23:03:55.113Z,144755.13
2022-11-28T23:06:26.506Z,144810.91
2022-11-28T23:08:58.398Z,144806.06
2022-11-28T23:11:32.727Z,144810.91
2022-11-28T23:14:01.318Z,144810.91
2022-11-28T23:16:31.028Z,144749.09
2022-11-28T23:19:00.965Z,144798.78
2022-11-28T23:21:33.597Z,144789.09
2022-11-28T23:24:01.211Z,144813.31
2022-11-28T23:26:30.707Z,144697.00
2022-11-28T23:29:00.533Z,144727.28
2022-11-28T23:31:30.862Z,144818.16
2022-11-28T23:34:00.411Z,144820.59
2022-11-28T23:36:37.014Z,144825.44
2022-11-28T23:39:18.326Z,144818.16
2022-11-28T23:41:45.939Z,144820.59
2022-11-28T23:44:14.253Z,144821.81
2022-11-28T23:46:41.978Z,144804.81
2022-11-28T23:49:09.764Z,144820.59
2022-11-28T23:51:37.762Z,144823.00
2022-11-28T23:54:04.895Z,144730.91
2022-11-28T23:56:35.256Z,144820.59
2022-11-28T23:59:04.486Z,144818.16
